Time;durP1;ratioP1;P1;durP2;ratioP2;P2;SDS_P1;SDS_P2;PMS_P1;PMS_P2;Temp;Humidity;BMP_temperature;BMP_pressure;BME280_temperature;BME280_humidity;BME280_pressure;Samples;Min_cycle;Max_cycle;Signal;HPM_P1;HPM_P2
2021/08/06 00:01:38;;;;;;;6.97;4.77;;;;;;;30.42;44.99;99545.02;128471;1084;64194;-87
2021/08/06 00:04:04;;;;;;;10.10;5.00;;;;;;;30.42;45.11;99541.44;128504;1084;64153;-86
2021/08/06 00:06:39;;;;;;;8.47;4.87;;;;;;;30.42;45.20;99538.70;128499;1082;64201;-86
2021/08/06 00:09:06;;;;;;;8.00;4.80;;;;;;;30.42;45.36;99542.30;128908;1084;64199;-86
2021/08/06 00:11:32;;;;;;;7.50;5.00;;;;;;;30.41;45.42;99542.50;128896;1082;63961;-86
2021/08/06 00:14:01;;;;;;;6.87;4.90;;;;;;;30.41;45.37;99537.05;128920;1083;64224;-86
2021/08/06 00:16:27;;;;;;;;;;;;;;;30.39;45.02;99536.41;128503;1084;64061;-87
2021/08/06 00:18:54;;;;;;;8.00;4.87;;;;;;;30.38;45.26;99548.33;128486;1084;64249;-86
2021/08/06 00:21:20;;;;;;;6.73;4.70;;;;;;;30.39;45.16;99550.02;128502;1084;64335;-86
2021/08/06 00:23:48;;;;;;;7.03;4.93;;;;;;;30.39;45.51;99555.45;128502;1083;64202;-86
2021/08/06 00:26:14;;;;;;;6.30;4.57;;;;;;;30.38;45.17;99557.35;128497;1084;64326;-85
2021/08/06 00:28:41;;;;;;;6.33;5.03;;;;;;;30.38;45.27;99564.66;128487;1082;64339;-86
2021/08/06 00:31:07;;;;;;;7.77;5.03;;;;;;;30.37;45.17;99569.27;128507;1084;64125;-86
2021/08/06 00:33:33;;;;;;;5.60;4.53;;;;;;;30.38;45.11;99562.80;128512;1084;64131;-86
2021/08/06 00:35:59;;;;;;;5.97;4.50;;;;;;;30.38;45.57;99561.94;128878;1084;64090;-86
2021/08/06 00:38:25;;;;;;;8.30;5.23;;;;;;;30.37;45.68;99563.83;128513;1084;64393;-87
2021/08/06 00:40:52;;;;;;;6.10;4.73;;;;;;;30.37;45.37;99569.27;128491;1084;64297;-86
2021/08/06 00:43:18;;;;;;;6.17;4.90;;;;;;;30.36;45.19;99570.31;128555;1082;64198;-87
2021/08/06 00:45:46;;;;;;;6.27;4.93;;;;;;;30.38;45.43;99572.83;128485;1084;64282;-86
2021/08/06 00:48:12;;;;;;;9.18;4.88;;;;;;;30.37;45.31;99574.72;128515;1082;64134;-86
2021/08/06 00:50:38;;;;;;;6.30;4.67;;;;;;;30.37;45.76;99580.16;128496;1084;64147;-86
2021/08/06 00:53:06;;;;;;;5.43;4.80;;;;;;;30.36;45.32;99581.20;128509;1084;64176;-85
2021/08/06 00:55:32;;;;;;;7.35;4.68;;;;;;;30.35;45.68;99587.68;128465;1084;64089;-85
2021/08/06 00:57:59;;;;;;;6.27;4.60;;;;;;;30.36;45.27;99580.38;128885;1082;64275;-86
2021/08/06 01:00:26;;;;;;;6.30;4.83;;;;;;;30.35;45.35;99582.23;128489;1084;64163;-85
2021/08/06 01:03:18;;;;;;;5.77;4.33;;;;;;;30.36;45.71;99589.37;128926;1084;64170;-86
2021/08/06 01:05:46;;;;;;;7.30;4.83;;;;;;;30.36;45.79;99596.70;128534;1084;64156;-85
2021/08/06 01:08:20;;;;;;;5.60;4.80;;;;;;;30.36;45.34;99593.98;128494;1084;64552;-85
2021/08/06 01:10:54;;;;;;;6.67;4.80;;;;;;;30.34;45.58;99591.47;128466;1084;64128;-87
2021/08/06 01:13:44;;;;;;;7.13;4.73;;;;;;;30.35;45.73;99586.84;128513;1084;64019;-86
2021/08/06 01:16:11;;;;;;;6.87;4.80;;;;;;;30.35;45.83;99582.23;128849;1084;64215;-86
2021/08/06 01:19:21;;;;;;;6.00;4.73;;;;;;;30.35;45.79;99589.57;128533;1082;64173;-86
2021/08/06 01:21:50;;;;;;;6.73;4.57;;;;;;;30.35;45.86;99578.68;128374;1087;62138;-86
2021/08/06 01:24:18;;;;;;;7.43;4.90;;;;;;;30.34;45.37;99579.72;127991;1087;63971;-86
2021/08/06 01:26:46;;;;;;;7.30;4.43;;;;;;;30.34;45.80;99583.30;128021;1085;64386;-86
2021/08/06 01:29:12;;;;;;;7.13;4.57;;;;;;;30.34;46.09;99588.74;127973;1087;64912;-85
2021/08/06 01:31:39;;;;;;;7.47;4.77;;;;;;;30.35;45.87;99586.84;127988;1085;64137;-85
2021/08/06 01:34:06;;;;;;;5.50;4.37;;;;;;;30.36;45.86;99585.81;127943;1087;64131;-86
2021/08/06 01:36:34;;;;;;;7.47;4.70;;;;;;;30.35;45.53;99581.41;127988;1087;64088;-86
2021/08/06 01:39:03;;;;;;;6.35;4.90;;;;;;;30.34;45.60;99575.13;128307;1087;64255;-87
2021/08/06 01:41:34;;;;;;;7.10;4.57;;;;;;;30.33;45.80;99570.72;127990;1087;64425;-86
2021/08/06 01:44:24;;;;;;;5.87;4.60;;;;;;;30.33;45.53;99578.89;128379;1085;64211;-86
2021/08/06 01:47:24;;;;;;;6.33;4.67;;;;;;;30.34;46.02;99579.72;128389;1087;64361;-86
2021/08/06 01:50:05;;;;;;;6.27;4.40;;;;;;;30.33;45.63;99581.61;128354;1086;64134;-86
2021/08/06 01:52:50;;;;;;;6.23;4.57;;;;;;;30.33;45.53;99584.33;127995;1087;64141;-85
2021/08/06 01:55:18;;;;;;;5.97;4.50;;;;;;;30.33;46.03;99578.89;128061;1086;64157;-86
2021/08/06 01:57:45;;;;;;;7.37;4.60;;;;;;;30.33;45.67;99581.61;127910;1087;64102;-86
2021/08/06 02:00:12;;;;;;;6.00;4.57;;;;;;;30.34;45.93;99585.16;128434;1084;64095;-86
2021/08/06 02:02:39;;;;;;;6.83;4.90;;;;;;;30.33;45.65;99578.03;128499;1084;64178;-86
2021/08/06 02:05:05;;;;;;;6.30;4.60;;;;;;;30.32;46.03;99576.38;128513;1083;64230;-85
2021/08/06 02:07:31;;;;;;;5.50;4.20;;;;;;;30.33;45.55;99584.33;128485;1084;64166;-86
2021/08/06 02:10:03;;;;;;;6.50;4.50;;;;;;;30.33;45.79;99589.78;128896;1084;64137;-87
2021/08/06 02:12:29;;;;;;;5.40;4.40;;;;;;;30.33;45.65;99583.47;128900;1084;64277;-86
2021/08/06 02:15:07;;;;;;;6.50;4.35;;;;;;;30.32;45.63;99588.09;128497;1084;64203;-86
2021/08/06 02:17:34;;;;;;;6.60;4.53;;;;;;;30.32;46.13;99590.81;128493;1083;64155;-86
2021/08/06 02:20:00;;;;;;;5.97;4.57;;;;;;;30.32;46.07;99595.43;128487;1084;64178;-87
2021/08/06 02:22:26;;;;;;;7.10;4.40;;;;;;;30.32;45.64;99589.98;128891;1084;65324;-86
2021/08/06 02:24:53;;;;;;;6.17;4.50;;;;;;;30.31;46.03;99586.41;128499;1084;64169;-85
2021/08/06 02:27:19;;;;;;;6.17;4.30;;;;;;;30.31;45.76;99583.67;128491;1084;64230;-85
2021/08/06 02:29:49;;;;;;;6.23;4.30;;;;;;;30.32;45.61;99579.92;128526;1083;64169;-86
2021/08/06 02:32:24;;;;;;;5.20;3.90;;;;;;;30.31;45.88;99574.69;128896;1083;64089;-86
2021/08/06 02:34:50;;;;;;;6.27;4.23;;;;;;;30.31;45.75;99591.84;128924;1083;64216;-86
2021/08/06 02:37:17;;;;;;;6.47;4.33;;;;;;;30.32;45.58;99581.81;128484;1084;64757;-85
2021/08/06 02:39:44;;;;;;;5.97;4.10;;;;;;;30.31;45.74;99588.30;128910;1084;64336;-85
2021/08/06 02:42:10;;;;;;;6.13;4.17;;;;;;;30.31;45.59;99591.84;128496;1084;64096;-86
2021/08/06 02:44:41;;;;;;;5.70;4.00;;;;;;;30.30;46.16;99579.30;128512;1084;64354;-86
2021/08/06 02:47:08;;;;;;;6.07;4.30;;;;;;;30.31;46.17;99597.29;128892;1084;64035;-85
2021/08/06 02:49:37;;;;;;;6.70;4.27;;;;;;;30.31;46.06;99594.56;128476;1082;64107;-86
2021/08/06 02:52:06;;;;;;;5.40;4.20;;;;;;;30.31;46.25;99605.45;128887;1084;64267;-85
2021/08/06 02:54:36;;;;;;;6.60;4.20;;;;;;;30.31;45.70;99604.63;128514;1082;64181;-85
2021/08/06 02:57:03;;;;;;;5.23;4.20;;;;;;;30.31;45.76;99618.23;128876;1084;64089;-86
2021/08/06 02:59:30;;;;;;;6.17;4.33;;;;;;;30.31;45.69;99621.78;128459;1082;64134;-86
2021/08/06 03:02:07;;;;;;;6.97;4.40;;;;;;;30.30;45.36;99636.47;128504;1084;64271;-85
2021/08/06 03:04:33;;;;;;;7.20;4.20;;;;;;;30.30;45.74;99620.13;128530;1084;64012;-86
2021/08/06 03:07:00;;;;;;;6.57;4.30;;;;;;;30.30;45.69;99633.73;128491;1082;64169;-85
2021/08/06 03:09:28;;;;;;;5.87;4.33;;;;;;;30.31;45.83;99659.07;128474;1084;64182;-86
2021/08/06 03:11:55;;;;;;;6.23;4.70;;;;;;;30.30;46.21;99663.69;128484;1084;64201;-85
2021/08/06 03:14:21;;;;;;;5.93;4.10;;;;;;;30.30;46.15;99654.66;128917;1084;64109;-85
2021/08/06 03:16:47;;;;;;;6.60;4.13;;;;;;;30.31;45.76;99650.91;128499;1084;64311;-86
2021/08/06 03:19:14;;;;;;;6.80;4.40;;;;;;;30.30;45.75;99655.52;128499;1084;64131;-86
2021/08/06 03:21:41;;;;;;;5.47;4.40;;;;;;;30.30;46.25;99657.38;128478;1084;64169;-86
2021/08/06 03:24:07;;;;;;;5.73;4.10;;;;;;;30.30;45.80;99668.27;128517;1084;64917;-86
2021/08/06 03:26:33;;;;;;;6.10;4.20;;;;;;;30.30;45.79;99690.91;128530;1084;64154;-86
2021/08/06 03:29:02;;;;;;;5.43;4.30;;;;;;;30.30;46.15;99703.66;128886;1084;64131;-85
2021/08/06 03:31:28;;;;;;;6.00;4.00;;;;;;;30.30;45.74;99739.05;128458;1084;64135;-85
2021/08/06 03:33:54;;;;;;;5.90;4.20;;;;;;;30.30;46.09;99771.71;128512;1083;64122;-85
2021/08/06 03:36:24;;;;;;;5.40;3.93;;;;;;;30.30;46.19;99782.60;128490;1084;64278;-85
2021/08/06 03:38:50;;;;;;;5.53;4.20;;;;;;;30.30;45.90;99764.41;128506;1084;64158;-86
2021/08/06 03:41:16;;;;;;;5.93;4.30;;;;;;;30.30;46.00;99756.23;128506;1084;64288;-86
2021/08/06 03:43:42;;;;;;;6.57;4.10;;;;;;;30.30;45.89;99733.60;128502;1084;66005;-86
2021/08/06 03:46:11;;;;;;;5.23;4.20;;;;;;;30.29;46.07;99719.16;128463;1084;64102;-85
2021/08/06 03:48:37;;;;;;;6.17;4.10;;;;;;;30.29;45.90;99732.77;128423;1084;62933;-85
2021/08/06 03:51:03;;;;;;;5.90;4.50;;;;;;;30.30;45.92;99719.98;128920;1084;64115;-86
2021/08/06 03:53:30;;;;;;;6.33;4.17;;;;;;;30.28;46.70;99687.52;128538;1084;64231;-85
2021/08/06 03:55:56;;;;;;;7.30;4.43;;;;;;;30.29;46.40;99658.41;128534;1084;64272;-86
2021/08/06 03:58:22;;;;;;;5.90;4.27;;;;;;;30.29;45.87;99632.05;128615;1084;64099;-85
2021/08/06 04:00:48;;;;;;;6.60;4.03;;;;;;;30.28;46.36;99614.03;128600;1082;64147;-85
2021/08/06 04:03:14;;;;;;;6.43;4.27;;;;;;;30.29;45.91;99595.80;128736;1083;64279;-84
2021/08/06 04:05:40;;;;;;;7.07;4.43;;;;;;;30.30;46.14;99564.83;128669;1084;64013;-83
2021/08/06 04:08:07;;;;;;;6.15;4.13;;;;;;;30.30;46.24;99540.33;128979;1084;64307;-85
2021/08/06 04:10:37;;;;;;;6.17;3.97;;;;;;;30.30;46.01;99537.61;128530;1084;65150;-85
2021/08/06 04:13:03;;;;;;;6.73;4.47;;;;;;;30.30;46.36;99551.22;128483;1082;64153;-85
2021/08/06 04:15:29;;;;;;;5.97;4.10;;;;;;;30.30;46.05;99551.22;128525;1084;64142;-86
2021/08/06 04:17:56;;;;;;;6.07;4.00;;;;;;;30.30;45.90;99548.50;128476;1084;64304;-86
2021/08/06 04:20:22;;;;;;;5.83;3.93;;;;;;;30.29;46.30;99557.70;128478;1084;64201;-86
2021/08/06 04:22:49;;;;;;;4.70;3.93;;;;;;;30.30;46.01;99583.88;128475;1084;64127;-87
2021/08/06 04:25:15;;;;;;;6.80;4.20;;;;;;;30.29;45.80;99576.75;128912;1084;64243;-86
2021/08/06 04:27:45;;;;;;;5.00;3.77;;;;;;;30.30;46.26;99553.94;128900;1084;64125;-85
2021/08/06 04:30:12;;;;;;;5.83;4.00;;;;;;;30.29;46.34;99564.00;128460;1084;64153;-86
2021/08/06 04:32:42;;;;;;;5.63;4.13;;;;;;;30.30;46.03;99592.05;128485;1084;64125;-86
2021/08/06 04:35:09;;;;;;;5.40;3.87;;;;;;;30.30;46.45;99611.10;128567;1083;64096;-86
2021/08/06 04:37:48;;;;;;;6.00;4.33;;;;;;;30.30;46.34;99613.83;128486;1082;63945;-86
2021/08/06 04:40:18;;;;;;;5.13;3.87;;;;;;;30.30;45.99;99589.33;128934;1084;64161;-86
2021/08/06 04:42:45;;;;;;;6.10;4.20;;;;;;;30.29;46.24;99593.95;128834;1084;64201;-86
2021/08/06 04:45:13;;;;;;;5.77;3.77;;;;;;;30.29;45.94;99588.50;128524;1084;64168;-85
2021/08/06 04:47:47;;;;;;;5.77;4.07;;;;;;;30.30;46.23;99592.91;128461;1084;64125;-87
2021/08/06 04:50:14;;;;;;;5.37;4.10;;;;;;;30.30;46.28;99589.33;128502;1082;62925;-86
2021/08/06 04:52:41;;;;;;;6.60;3.90;;;;;;;30.29;45.86;99585.78;128452;1084;64179;-85
2021/08/06 04:55:07;;;;;;;6.50;4.00;;;;;;;30.28;45.95;99567.75;128903;1084;64131;-86
2021/08/06 04:57:38;;;;;;;6.43;3.93;;;;;;;30.27;45.85;99579.67;128488;1084;64113;-86
2021/08/06 05:00:05;;;;;;;8.40;4.20;;;;;;;30.27;45.86;99579.67;128557;1084;64159;-86
2021/08/06 05:02:37;;;;;;;5.53;3.80;;;;;;;30.25;45.54;99579.05;128513;1082;64176;-85
2021/08/06 05:05:03;;;;;;;6.37;4.30;;;;;;;30.25;46.01;99587.22;128915;1083;64115;-85
2021/08/06 05:07:29;;;;;;;6.80;4.13;;;;;;;30.25;45.56;99600.83;128459;1083;64111;-86
2021/08/06 05:09:57;;;;;;;8.73;4.07;;;;;;;30.24;45.93;99591.80;128476;1084;64230;-85
2021/08/06 05:12:23;;;;;;;5.83;4.20;;;;;;;30.24;45.48;99580.91;128516;1082;64099;-85
2021/08/06 05:14:50;;;;;;;7.00;4.23;;;;;;;30.24;45.82;99575.47;128508;1084;64101;-85
2021/08/06 05:17:19;;;;;;;6.03;3.78;;;;;;;30.24;45.87;99577.37;128465;1082;64090;-86
2021/08/06 05:19:45;;;;;;;5.87;3.97;;;;;;;30.24;45.29;99599.14;128923;1084;64279;-86
2021/08/06 05:22:12;;;;;;;6.87;4.17;;;;;;;30.24;45.51;99616.30;128459;1084;64126;-85
2021/08/06 05:24:39;;;;;;;9.10;4.37;;;;;;;30.24;45.66;99621.74;128496;1084;64121;-86
2021/08/06 05:27:05;;;;;;;7.70;4.10;;;;;;;30.24;45.18;99623.64;128908;1082;64125;-86
2021/08/06 05:29:35;;;;;;;6.60;4.10;;;;;;;30.24;45.22;99620.91;128474;1083;64105;-86
2021/08/06 05:32:01;;;;;;;6.27;3.93;;;;;;;30.24;45.54;99627.19;128503;1084;64093;-86
2021/08/06 05:34:27;;;;;;;7.63;4.37;;;;;;;30.24;45.14;99620.91;128509;1084;64200;-86
2021/08/06 05:36:55;;;;;;;9.97;4.77;;;;;;;30.24;45.44;99624.47;128920;1082;64147;-86
2021/08/06 05:39:22;;;;;;;6.88;4.20;;;;;;;30.24;45.53;99612.75;128484;1083;64156;-86
2021/08/06 05:41:49;;;;;;;6.57;4.50;;;;;;;30.24;45.06;99613.58;128485;1084;64639;-85
2021/08/06 05:44:17;;;;;;;6.00;3.77;;;;;;;30.26;45.36;99621.54;128520;1084;64146;-86
2021/08/06 05:46:43;;;;;;;6.20;4.23;;;;;;;30.26;45.01;99624.27;128483;1084;64179;-85
2021/08/06 05:49:10;;;;;;;11.73;4.27;;;;;;;30.24;45.32;99618.20;128486;1082;64275;-85
2021/08/06 05:51:38;;;;;;;9.90;4.50;;;;;;;30.24;45.25;99629.08;128501;1084;64131;-85
2021/08/06 05:54:04;;;;;;;8.87;4.60;;;;;;;30.24;45.07;99638.08;128488;1083;64208;-86
2021/08/06 05:56:31;;;;;;;8.67;4.33;;;;;;;30.23;45.23;99644.58;128481;1082;64092;-87
2021/08/06 05:58:58;;;;;;;14.37;4.57;;;;;;;30.22;44.98;99653.78;128475;1084;64136;-85
2021/08/06 06:01:24;;;;;;;8.17;4.50;;;;;;;30.21;44.78;99654.81;128421;1082;64296;-85
2021/08/06 06:03:50;;;;;;;9.17;4.97;;;;;;;30.20;44.55;99655.84;128443;1084;64281;-85
2021/08/06 06:06:16;;;;;;;8.43;4.60;;;;;;;30.19;44.71;99654.16;128384;1084;64120;-85
2021/08/06 06:08:42;;;;;;;12.37;4.83;;;;;;;30.19;44.79;99653.33;128379;1084;64204;-85
2021/08/06 06:11:08;;;;;;;11.73;4.87;;;;;;;30.19;44.31;99647.88;128828;1083;62261;-85
2021/08/06 06:13:35;;;;;;;9.87;4.70;;;;;;;30.19;44.39;99645.16;128833;1084;64137;-85
2021/08/06 06:16:02;;;;;;;11.13;4.47;;;;;;;30.18;44.58;99648.91;128782;1082;64281;-86
2021/08/06 06:18:28;;;;;;;10.13;4.47;;;;;;;30.17;44.05;99669.03;128399;1084;64207;-85
2021/08/06 06:20:55;;;;;;;10.83;4.33;;;;;;;30.17;44.15;99679.91;128438;1084;64410;-85
2021/08/06 06:23:21;;;;;;;13.48;4.68;;;;;;;30.16;44.37;99683.67;128883;1084;62355;-86
2021/08/06 06:25:49;;;;;;;9.13;4.57;;;;;;;30.13;43.93;99670.43;128408;1082;64177;-86
2021/08/06 06:28:16;;;;;;;9.97;4.77;;;;;;;30.08;44.25;99662.88;128814;1083;64202;-85
2021/08/06 06:30:43;;;;;;;11.73;4.90;;;;;;;30.05;44.12;99666.83;128815;1083;64304;-85
2021/08/06 06:33:09;;;;;;;14.07;4.97;;;;;;;30.03;44.09;99676.22;128856;1084;64130;-85
2021/08/06 06:35:36;;;;;;;10.87;5.00;;;;;;;30.02;44.14;99691.72;128807;1084;64090;-86
2021/08/06 06:38:03;;;;;;;9.23;4.63;;;;;;;30.02;44.01;99699.02;128416;1082;64131;-85
2021/08/06 06:40:30;;;;;;;12.30;4.80;;;;;;;30.00;44.04;99698.39;128839;1082;64288;-85
2021/08/06 06:42:58;;;;;;;12.77;4.63;;;;;;;29.98;44.05;99700.45;128459;1083;64217;-85
2021/08/06 06:45:24;;;;;;;7.90;4.77;;;;;;;29.96;43.92;99688.94;128427;1083;64131;-87
2021/08/06 06:47:52;;;;;;;12.90;4.97;;;;;;;29.95;43.79;99685.36;128812;1084;64328;-84
2021/08/06 06:50:23;;;;;;;13.13;4.87;;;;;;;29.95;44.12;99689.97;128417;1083;64392;-84
2021/08/06 06:52:49;;;;;;;13.83;5.40;;;;;;;29.95;43.86;99698.13;128434;1082;64264;-85
2021/08/06 06:55:15;;;;;;;11.30;4.93;;;;;;;29.95;43.69;99704.41;128407;1084;64128;-86
2021/08/06 06:57:49;;;;;;;11.97;5.23;;;;;;;29.97;43.74;99707.78;128469;1082;64331;-86
2021/08/06 07:00:16;;;;;;;10.93;5.10;;;;;;;29.96;43.76;99711.53;128342;1083;64105;-85
2021/08/06 07:02:42;;;;;;;14.13;5.10;;;;;;;29.98;44.13;99705.89;128394;1084;63984;-85
2021/08/06 07:05:09;;;;;;;10.47;5.17;;;;;;;29.98;44.13;99703.17;128796;1082;64165;-85
2021/08/06 07:07:35;;;;;;;12.27;5.20;;;;;;;29.97;43.84;99706.95;128800;1084;64219;-85
2021/08/06 07:10:02;;;;;;;12.03;5.50;;;;;;;29.98;43.78;99705.89;128374;1082;64118;-85
2021/08/06 07:12:28;;;;;;;10.53;5.33;;;;;;;29.98;43.70;99708.61;128425;1082;64275;-85
2021/08/06 07:14:54;;;;;;;10.27;5.37;;;;;;;30.00;44.13;99712.00;128364;1084;64208;-85
2021/08/06 07:17:20;;;;;;;16.67;5.57;;;;;;;30.00;44.02;99722.88;128425;1084;64262;-86
2021/08/06 07:19:47;;;;;;;9.07;4.90;;;;;;;29.99;44.13;99719.30;128372;1084;64133;-84
2021/08/06 07:22:13;;;;;;;15.83;5.50;;;;;;;30.00;43.53;99720.98;128392;1084;64355;-86
2021/08/06 07:24:40;;;;;;;12.53;5.40;;;;;;;29.99;43.65;99727.45;128413;1082;64184;-85
2021/08/06 07:27:07;;;;;;;13.27;5.50;;;;;;;29.98;43.96;99714.91;128460;1081;64147;-86
2021/08/06 07:29:33;;;;;;;11.85;5.25;;;;;;;29.98;43.65;99716.77;128426;1084;64128;-85
2021/08/06 07:32:00;;;;;;;10.90;5.77;;;;;;;29.96;43.93;99714.25;128484;1082;64124;-85
2021/08/06 07:34:27;;;;;;;15.13;5.47;;;;;;;29.95;43.46;99720.73;128341;1084;64213;-86
2021/08/06 07:36:53;;;;;;;11.83;5.23;;;;;;;29.96;43.52;99733.30;128447;1083;61878;-85
2021/08/06 07:39:20;;;;;;;15.17;5.80;;;;;;;29.96;43.80;99730.58;128328;1084;64191;-84
2021/08/06 07:41:46;;;;;;;14.43;5.30;;;;;;;29.96;43.74;99727.86;128385;1084;64212;-86
2021/08/06 07:44:13;;;;;;;12.23;5.37;;;;;;;29.98;43.48;99724.94;128352;1083;64163;-84
2021/08/06 07:46:39;;;;;;;13.10;5.20;;;;;;;30.00;43.40;99728.32;128401;1084;64085;-86
2021/08/06 07:49:05;;;;;;;14.17;5.27;;;;;;;30.01;43.88;99719.13;128452;1084;64147;-85
2021/08/06 07:51:32;;;;;;;14.53;5.40;;;;;;;30.02;43.87;99723.52;128787;1084;64101;-85
2021/08/06 07:53:58;;;;;;;12.87;5.33;;;;;;;30.04;43.88;99716.01;128814;1084;64254;-85
2021/08/06 07:56:24;;;;;;;13.73;5.00;;;;;;;30.04;43.83;99722.28;128462;1084;64144;-85
2021/08/06 07:58:50;;;;;;;10.50;5.00;;;;;;;30.06;43.53;99720.22;128799;1084;64291;-85
2021/08/06 08:01:17;;;;;;;12.77;5.17;;;;;;;30.06;43.86;99720.22;128455;1084;65302;-86
2021/08/06 08:03:43;;;;;;;9.97;4.93;;;;;;;30.08;43.50;99723.57;128412;1084;64125;-85
2021/08/06 08:06:10;;;;;;;10.00;5.30;;;;;;;30.09;43.56;99733.42;128441;1082;64141;-83
2021/08/06 08:08:36;;;;;;;13.27;5.43;;;;;;;30.10;43.94;99731.56;128620;1084;64102;-85
2021/08/06 08:11:02;;;;;;;8.83;4.90;;;;;;;30.12;44.03;99731.36;128696;1082;64096;-85
2021/08/06 08:13:28;;;;;;;13.10;5.17;;;;;;;30.13;43.82;99728.45;128672;1083;64187;-86
2021/08/06 08:15:55;;;;;;;9.77;5.40;;;;;;;30.13;44.04;99728.45;128737;1084;64127;-85
2021/08/06 08:18:21;;;;;;;8.80;4.93;;;;;;;30.15;43.77;99747.30;129037;1084;64152;-83
2021/08/06 08:20:48;;;;;;;11.10;5.10;;;;;;;30.15;44.02;99756.29;128465;1084;64115;-85
2021/08/06 08:23:16;;;;;;;12.80;4.80;;;;;;;30.15;43.53;99764.45;128476;1084;64131;-85
2021/08/06 08:25:42;;;;;;;10.67;5.13;;;;;;;30.17;43.51;99778.72;128493;1083;64169;-85
2021/08/06 08:28:18;;;;;;;10.93;5.23;;;;;;;30.17;43.90;99783.34;128496;1082;64229;-85
2021/08/06 08:30:44;;;;;;;10.20;5.80;;;;;;;30.16;44.03;99784.37;128516;1084;64101;-86
2021/08/06 08:33:14;;;;;;;9.87;5.07;;;;;;;30.16;43.62;99778.92;128460;1084;64066;-85
2021/08/06 08:35:44;;;;;;;10.47;5.10;;;;;;;30.17;43.53;99786.89;128519;1083;63936;-85
2021/08/06 08:38:19;;;;;;;10.20;5.40;;;;;;;30.15;43.92;99783.50;128899;1084;64154;-87
2021/08/06 08:40:46;;;;;;;11.60;5.20;;;;;;;30.17;43.91;99775.17;128878;1084;64259;-86
2021/08/06 08:43:19;;;;;;;11.57;5.57;;;;;;;30.16;43.62;99751.70;128535;1084;64202;-86
2021/08/06 08:45:48;;;;;;;13.23;5.77;;;;;;;30.16;43.84;99735.38;128453;1083;64201;-86
2021/08/06 08:48:17;;;;;;;9.83;5.20;;;;;;;30.15;43.48;99723.63;128508;1084;64102;-85
2021/08/06 08:50:45;;;;;;;11.60;5.10;;;;;;;30.16;43.98;99740.83;128493;1084;64151;-85
2021/08/06 08:53:13;;;;;;;14.47;5.63;;;;;;;30.15;43.67;99748.13;128482;1082;64272;-87
2021/08/06 08:55:49;;;;;;;10.30;5.70;;;;;;;30.13;43.49;99752.08;128521;1084;64728;-86
2021/08/06 08:58:15;;;;;;;7.93;4.77;;;;;;;30.14;43.98;99734.72;128505;1083;64128;-85
2021/08/06 09:00:43;;;;;;;13.87;5.20;;;;;;;30.13;43.51;99724.86;128479;1084;64191;-85
2021/08/06 09:03:30;;;;;;;10.50;5.10;;;;;;;30.13;43.51;99730.30;128922;1082;63942;-86
2021/08/06 09:05:57;;;;;;;8.07;5.10;;;;;;;30.12;43.78;99750.42;128461;1084;64210;-86
2021/08/06 09:08:24;;;;;;;14.90;6.00;;;;;;;30.12;44.03;99770.30;128458;1084;64093;-86
2021/08/06 09:10:50;;;;;;;14.23;5.80;;;;;;;30.09;43.83;99790.58;128479;1084;64153;-85
2021/08/06 09:13:22;;;;;;;13.93;5.67;;;;;;;30.07;44.06;99779.06;128928;1084;64134;-85
2021/08/06 09:15:54;;;;;;;12.10;6.10;;;;;;;30.06;44.21;99763.76;128486;1084;64173;-86
2021/08/06 09:18:35;;;;;;;10.77;5.57;;;;;;;30.06;44.22;99768.34;128459;1083;64179;-86
2021/08/06 09:21:18;;;;;;;11.20;5.70;;;;;;;30.05;44.22;99759.34;128925;1083;64404;-86
2021/08/06 09:23:58;;;;;;;11.80;5.30;;;;;;;30.06;44.06;99749.30;128910;1084;64708;-85
2021/08/06 09:26:34;;;;;;;12.00;5.83;;;;;;;30.06;44.01;99752.02;128523;1084;64131;-86
2021/08/06 09:29:10;;;;;;;12.90;5.63;;;;;;;30.06;44.20;99777.36;128899;1083;64327;-86
2021/08/06 09:31:43;;;;;;;11.53;5.30;;;;;;;30.06;43.81;99800.99;128477;1084;64128;-86
2021/08/06 09:34:15;;;;;;;11.23;5.93;;;;;;;30.07;43.88;99805.41;128454;1084;63980;-85
2021/08/06 09:37:02;;;;;;;9.00;5.30;;;;;;;30.07;44.26;99795.39;128493;1084;64122;-85
2021/08/06 09:39:34;;;;;;;11.00;5.47;;;;;;;30.08;43.81;99766.28;128870;1084;64137;-85
2021/08/06 09:42:00;;;;;;;11.43;5.57;;;;;;;30.06;43.90;99757.45;128522;1084;64163;-87
2021/08/06 09:44:28;;;;;;;9.10;5.60;;;;;;;30.08;44.26;99771.72;128510;1084;64204;-85
2021/08/06 09:47:06;;;;;;;;;;;;;;;;;;;;;
2021/08/06 09:49:33;;;;;;;8.63;5.37;;;;;;;30.07;44.02;99764.59;128536;1083;64107;-87
2021/08/06 09:51:59;;;;;;;10.55;5.40;;;;;;;30.07;43.99;99740.09;128472;1084;64115;-87
2021/08/06 09:54:28;;;;;;;8.73;5.10;;;;;;;30.07;44.31;99754.56;128535;1084;64137;-86
2021/08/06 09:57:08;;;;;;;10.93;5.40;;;;;;;30.06;44.44;99763.76;128459;1084;64331;-86
2021/08/06 09:59:35;;;;;;;9.47;5.43;;;;;;;30.08;43.94;99774.45;128466;1084;64243;-87
2021/08/06 10:02:24;;;;;;;8.00;5.43;;;;;;;30.08;44.00;99761.67;128537;1084;63907;-86
2021/08/06 10:05:08;;;;;;;9.18;4.70;;;;;;;30.08;44.34;99761.67;128495;1084;65082;-86
2021/08/06 10:07:41;;;;;;;10.20;5.10;;;;;;;30.08;44.10;99780.72;128501;1084;64224;-86
2021/08/06 10:10:24;;;;;;;10.10;5.60;;;;;;;30.09;44.18;99787.86;128469;1084;64221;-85
2021/08/06 10:12:53;;;;;;;13.90;7.97;;;;;;;30.09;44.40;99795.19;128326;1084;64329;-85
2021/08/06 10:15:19;;;;;;;;;;;;;;;30.08;44.05;99786.16;128426;1083;64157;-85
2021/08/06 10:17:47;;;;;;;18.83;12.07;;;;;;;30.09;44.41;99781.58;128384;1084;64218;-86
2021/08/06 10:20:15;;;;;;;18.55;11.95;;;;;;;30.10;44.43;99777.83;128471;1084;64130;-85
2021/08/06 10:22:44;;;;;;;20.58;13.53;;;;;;;30.12;44.42;99772.19;128910;1083;64137;-86
2021/08/06 10:25:16;;;;;;;20.63;14.83;;;;;;;30.11;44.43;99748.72;128499;1084;64194;-86
2021/08/06 10:27:44;;;;;;;21.37;15.37;;;;;;;30.12;44.44;99736.81;128488;1084;63948;-85
2021/08/06 10:30:27;;;;;;;21.50;15.37;;;;;;;30.12;44.20;99740.36;128400;1083;64198;-86
2021/08/06 10:33:26;;;;;;;23.47;15.43;;;;;;;30.11;44.40;99757.72;128912;1083;64186;-86
2021/08/06 10:36:15;;;;;;;21.73;14.77;;;;;;;30.13;44.52;99787.45;128887;1084;64103;-86
2021/08/06 10:38:44;;;;;;;20.47;14.33;;;;;;;30.13;44.12;99801.92;128523;1082;64004;-86
2021/08/06 10:41:20;;;;;;;23.57;13.97;;;;;;;30.13;44.21;99812.81;128518;1084;64096;-85
2021/08/06 10:44:00;;;;;;;19.23;13.43;;;;;;;30.13;44.05;99799.20;128510;1084;64093;-86
2021/08/06 10:47:08;;;;;;;20.60;13.63;;;;;;;30.13;44.24;99807.37;128911;1084;64135;-86
2021/08/06 10:49:34;;;;;;;18.87;12.47;;;;;;;30.13;44.32;99806.50;128924;1084;64156;-86
2021/08/06 10:52:21;;;;;;;19.03;12.77;;;;;;;30.13;44.17;99810.09;128512;1083;64256;-86
2021/08/06 10:54:48;;;;;;;17.10;12.07;;;;;;;30.13;44.47;99818.25;128896;1082;64222;-86
2021/08/06 10:57:21;;;;;;;18.00;12.15;;;;;;;30.12;44.05;99808.39;128925;1084;64013;-85
2021/08/06 10:59:50;;;;;;;18.27;11.60;;;;;;;30.12;44.22;99800.23;128894;1084;64303;-86
2021/08/06 11:02:39;;;;;;;17.53;11.93;;;;;;;30.12;44.68;99792.06;128480;1082;64134;-86
2021/08/06 11:05:51;;;;;;;16.20;11.47;;;;;;;30.13;44.56;99782.02;128501;1084;64287;-86
2021/08/06 11:08:47;;;;;;;14.40;11.17;;;;;;;30.10;44.59;99769.66;128418;1086;64237;-86
2021/08/06 11:11:52;;;;;;;15.40;10.73;;;;;;;30.09;44.75;99755.20;128367;1087;64138;-86
2021/08/06 11:14:50;;;;;;;16.03;11.33;;;;;;;30.09;44.39;99741.59;128037;1087;65080;-86
2021/08/06 11:17:40;;;;;;;17.47;10.40;;;;;;;30.10;44.84;99737.01;127913;1090;64632;-86
2021/08/06 11:20:17;;;;;;;15.77;10.47;;;;;;;30.09;44.70;99725.27;127927;1090;64173;-87
2021/08/06 11:22:46;;;;;;;17.43;10.83;;;;;;;30.09;44.95;99727.98;127908;1090;64403;-86
2021/08/06 11:25:24;;;;;;;15.70;10.60;;;;;;;30.10;44.42;99728.84;127920;1088;64102;-86
2021/08/06 11:28:02;;;;;;;15.70;10.73;;;;;;;30.10;44.97;99739.73;127911;1090;64243;-89
2021/08/06 11:30:33;;;;;;;13.88;9.25;;;;;;;30.12;44.88;99750.42;127937;1089;64301;-87
2021/08/06 11:33:10;;;;;;;14.10;9.53;;;;;;;30.12;44.92;99758.58;127927;1089;64083;-87
2021/08/06 11:35:37;;;;;;;13.47;9.10;;;;;;;30.11;44.88;99762.33;127928;1089;64131;-86